Time;durP1;ratioP1;P1;durP2;ratioP2;P2;SDS_P1;SDS_P2;PMS_P1;PMS_P2;Temp;Humidity;BMP_temperature;BMP_pressure;BME280_temperature;BME280_humidity;BME280_pressure;Samples;Min_cycle;Max_cycle;Signal;HPM_P1;HPM_P2
2023/06/23 00:04:50;;;;;;;0.95;0.70;;;;;;;;;;20838975;28;1140090;-69
2023/06/23 00:14:52;;;;;;;0.93;0.70;;;;;;;;;;20863917;28;20701;-69
2023/06/23 00:24:54;;;;;;;1.40;0.90;;;;;;;;;;20867876;28;20633;-69
2023/06/23 00:34:56;;;;;;;1.05;0.70;;;;;;;;;;20889596;28;20300;-70
2023/06/23 00:44:58;;;;;;;2.35;0.90;;;;;;;;;;20877454;28;20240;-69
2023/06/23 00:55:03;;;;;;;2.08;1.25;;;;;;;;;;20888220;28;20228;-69
2023/06/23 01:05:05;;;;;;;1.55;1.00;;;;;;;;;;20871002;28;20273;-70
2023/06/23 01:15:12;;;;;;;1.30;0.80;;;;;;;;;;20858876;28;20235;-70
2023/06/23 01:25:29;;;;;;;1.77;1.10;;;;;;;;;;20887508;28;20291;-70
2023/06/23 01:35:34;;;;;;;1.70;1.00;;;;;;;;;;20873280;28;20248;-69
2023/06/23 01:45:39;;;;;;;1.42;1.00;;;25.40;99.90;;;;;;20873128;28;20799;-69
2023/06/23 01:55:42;;;;;;;1.90;1.20;;;;;;;;;;20853328;28;20245;-69
2023/06/23 02:05:47;;;;;;;1.48;1.10;;;;;;;;;;20887007;23;20240;-74
2023/06/23 02:15:50;;;;;;;2.28;1.13;;;25.10;99.90;;;;;;20806900;28;20230;-74
2023/06/23 02:25:53;;;;;;;2.78;1.10;;;;;;;;;;20794346;28;20221;-74
2023/06/23 02:35:57;;;;;;;1.52;1.00;;;24.90;99.90;;;;;;20790313;28;20436;-74
2023/06/23 02:46:00;;;;;;;1.88;1.20;;;24.90;99.90;;;;;;20790094;28;20255;-74
2023/06/23 02:56:05;;;;;;;1.85;1.40;;;;;;;;;;20787568;28;20217;-74
2023/06/23 03:06:06;;;;;;;2.13;1.30;;;;;;;;;;20806417;28;20225;-73
2023/06/23 03:16:11;;;;;;;1.90;1.45;;;;;;;;;;20793707;28;20233;-74
2023/06/23 03:26:13;;;;;;;1.92;1.30;;;;;;;;;;20821293;28;20233;-74
2023/06/23 03:36:19;;;;;;;2.25;1.58;;;24.60;99.90;;;;;;20804903;28;20274;-71
2023/06/23 03:46:28;;;;;;;3.65;1.60;;;24.40;99.90;;;;;;20795106;28;20249;-70
2023/06/23 03:56:33;;;;;;;3.00;2.13;;;24.50;99.90;;;;;;20827548;28;20765;-70
2023/06/23 04:06:35;;;;;;;2.65;1.95;;;;;;;;;;20829797;28;20223;-70
2023/06/23 04:16:40;;;;;;;3.03;2.45;;;24.30;99.90;;;;;;20825219;28;20590;-70
2023/06/23 04:26:43;;;;;;;3.47;2.65;;;;;;;;;;20783734;28;20827;-71
2023/06/23 04:37:08;;;;;;;3.60;2.60;;;24.10;99.90;;;;;;20808362;28;20295;-71
2023/06/23 04:47:11;;;;;;;5.45;3.35;;;;;;;;;;20825049;28;20617;-71
2023/06/23 04:57:15;;;;;;;4.50;2.80;;;;;;;;;;20804889;28;20222;-71
2023/06/23 05:07:17;;;;;;;3.47;2.80;;;;;;;;;;20792794;28;20246;-72
2023/06/23 05:17:20;;;;;;;4.20;3.00;;;24.00;99.90;;;;;;20794187;28;20228;-71
2023/06/23 05:27:26;;;;;;;3.58;2.80;;;;;;;;;;20810313;28;20204;-71
2023/06/23 05:37:28;;;;;;;2.88;1.95;;;;;;;;;;20820772;28;20221;-71
2023/06/23 05:47:50;;;;;;;2.75;2.05;;;;;;;;;;20808449;28;20698;-70
2023/06/23 05:57:59;;;;;;;2.75;1.92;;;24.70;99.90;;;;;;20807547;28;20691;-75
2023/06/23 06:08:02;;;;;;;2.55;1.80;;;;;;;;;;20812842;28;20235;-74
2023/06/23 06:18:07;;;;;;;2.95;1.35;;;25.00;99.90;;;;;;20783390;28;20283;-74
2023/06/23 06:28:12;;;;;;;2.20;1.45;;;25.00;99.90;;;;;;20779772;28;20225;-74
2023/06/23 06:38:15;;;;;;;2.03;1.33;;;25.20;99.90;;;;;;20815586;28;20222;-80
2023/06/23 06:48:17;;;;;;;2.20;1.30;;;;;;;;;;20824970;28;20218;-80
2023/06/23 06:58:19;;;;;;;1.60;1.00;;;;;;;;;;20845324;28;20253;-79
2023/06/23 07:08:20;;;;;;;1.95;1.15;;;;;;;;;;20868119;28;20200;-79
2023/06/23 07:18:24;;;;;;;2.63;0.90;;;;;;;;;;20771200;28;20253;-79
2023/06/23 07:28:26;;;;;;;2.08;0.98;;;;;;;;;;20757573;28;20622;-79
2023/06/23 07:38:27;;;;;;;1.58;1.05;;;;;;;;;;20800153;28;20640;-82
2023/06/23 07:48:29;;;;;;;1.30;0.80;;;;;;;;;;20826596;28;20250;-81
2023/06/23 07:58:31;;;;;;;1.40;0.80;;;;;;;;;;20857154;28;20722;-80
2023/06/23 08:08:33;;;;;;;1.48;0.98;;;;;;;;;;20899454;23;20291;-67
2023/06/23 08:18:35;;;;;;;5.18;1.00;;;;;;;;;;20874091;28;21456;-67
2023/06/23 08:28:36;;;;;;;1.30;0.90;;;;;;;;;;20904387;28;20212;-68
2023/06/23 08:38:38;;;;;;;1.58;0.90;;;;;;;;;;20907443;28;20236;-68
2023/06/23 08:48:45;;;;;;;1.45;0.85;;;27.40;97.20;;;;;;20880008;28;20229;-68
2023/06/23 08:58:48;;;;;;;1.02;0.70;;;;;;;;;;20882812;28;20365;-68
2023/06/23 09:08:50;;;;;;;1.33;0.85;;;;;;;;;;20883903;28;20373;-68
2023/06/23 09:18:52;;;;;;;1.25;0.77;;;;;;;;;;20859228;28;20701;-68
2023/06/23 09:29:13;;;;;;;1.20;0.70;;;;;;;;;;20856321;28;20254;-67
2023/06/23 09:39:15;;;;;;;1.40;0.80;;;;;;;;;;20887649;28;20274;-68
2023/06/23 09:49:17;;;;;;;2.28;0.70;;;;;;;;;;20872901;28;20287;-69
2023/06/23 09:59:19;;;;;;;1.17;0.60;;;;;;;;;;20873726;28;20220;-69
2023/06/23 10:09:23;;;;;;;1.35;0.90;;;;;;;;;;20854296;28;20231;-69
2023/06/23 10:19:25;;;;;;;1.27;0.70;;;;;;;;;;20857239;28;20242;-68
2023/06/23 10:29:28;;;;;;;1.23;0.77;;;;;;;;;;20850539;28;20797;-69
2023/06/23 10:39:32;;;;;;;0.95;0.60;;;;;;;;;;20875315;28;20267;-70
2023/06/23 10:49:34;;;;;;;0.77;0.65;;;;;;;;;;20834702;28;20232;-69
2023/06/23 10:59:40;;;;;;;0.98;0.60;;;;;;;;;;20874616;28;20233;-70
2023/06/23 11:09:55;;;;;;;0.65;0.55;;;;;;;;;;20881163;28;20580;-69
2023/06/23 11:19:58;;;;;;;0.93;0.68;;;;;;;;;;20896389;28;20645;-69
2023/06/23 11:30:18;;;;;;;0.90;0.65;;;;;;;;;;20862635;28;20322;-69
2023/06/23 11:40:23;;;;;;;1.38;0.75;;;;;;;;;;20882329;28;20690;-69
2023/06/23 11:50:25;;;;;;;0.80;0.60;;;;;;;;;;20878856;28;20217;-68
2023/06/23 12:00:28;;;;;;;2.40;0.60;;;;;;;;;;20855446;28;20729;-69
2023/06/23 12:10:30;;;;;;;0.85;0.57;;;;;;;;;;20864430;28;20286;-69
2023/06/23 12:20:36;;;;;;;1.40;0.60;;;;;;;;;;20845496;28;20225;-69
2023/06/23 12:30:43;;;;;;;0.77;0.57;;;30.00;83.10;;;;;;20878516;28;20278;-69
2023/06/23 12:40:46;;;;;;;0.93;0.60;;;;;;;;;;20858677;28;20295;-69
2023/06/23 12:50:47;;;;;;;0.80;0.52;;;;;;;;;;20847891;28;20225;-69
2023/06/23 13:00:49;;;;;;;1.30;0.60;;;;;;;;;;20883236;28;20233;-69
2023/06/23 13:10:51;;;;;;;1.00;0.65;;;;;;;;;;20867100;28;20223;-69
2023/06/23 13:20:53;;;;;;;0.60;0.43;;;;;;;;;;20855555;28;20272;-69
2023/06/23 13:30:55;;;;;;;1.45;0.50;;;;;;;;;;20854741;28;20210;-69
2023/06/23 13:40:57;;;;;;;0.77;0.60;;;;;;;;;;20913049;28;20656;-69
2023/06/23 13:51:00;;;;;;;0.90;0.60;;;;;;;;;;20869390;28;20214;-72
2023/06/23 14:01:04;;;;;;;1.15;0.70;;;;;;;;;;20853813;28;20230;-70
2023/06/23 14:11:06;;;;;;;1.77;1.00;;;;;;;;;;20884264;28;20217;-69
2023/06/23 14:21:08;;;;;;;0.68;0.55;;;;;;;;;;20849193;28;20695;-70
2023/06/23 14:31:10;;;;;;;1.75;0.82;;;;;;;;;;20878306;28;20226;-69
2023/06/23 14:41:13;;;;;;;1.60;0.63;;;;;;;;;;20839109;28;20325;-69
2023/06/23 14:51:15;;;;;;;0.60;0.50;;;;;;;;;;20892244;28;20229;-69
2023/06/23 15:01:17;;;;;;;1.00;0.65;;;;;;;;;;20845930;28;20230;-69
2023/06/23 15:11:19;;;;;;;1.20;0.60;;;;;;;;;;20843066;28;20265;-68
2023/06/23 15:21:21;;;;;;;1.05;0.70;;;;;;;;;;20888667;28;20252;-69
2023/06/23 15:31:23;;;;;;;1.00;0.70;;;;;;;;;;20847165;28;20214;-69
2023/06/23 15:41:25;;;;;;;1.10;0.60;;;;;;;;;;20842993;28;20217;-68
2023/06/23 15:51:27;;;;;;;1.23;0.55;;;;;;;;;;20811527;28;20221;-70
2023/06/23 16:01:29;;;;;;;2.08;0.80;;;29.60;73.00;;;;;;20887484;28;20210;-69
2023/06/23 16:11:31;;;;;;;1.00;0.60;;;;;;;;;;20862700;28;20284;-69
2023/06/23 16:21:34;;;;;;;0.60;0.43;;;;;;;;;;20834463;28;20221;-70
2023/06/23 16:31:36;;;;;;;0.73;0.60;;;;;;;;;;20862473;28;20210;-70
2023/06/23 16:41:38;;;;;;;0.85;0.60;;;;;;;;;;20865913;28;20221;-71
2023/06/23 16:51:40;;;;;;;1.17;0.82;;;;;;;;;;20858454;28;20218;-68
2023/06/23 17:01:42;;;;;;;0.93;0.65;;;;;;;;;;20857310;28;20605;-68
2023/06/23 17:11:43;;;;;;;1.23;0.70;;;;;;;;;;20864448;28;20213;-69
2023/06/23 17:21:45;;;;;;;0.82;0.60;;;;;;;;;;20901599;28;20224;-68
2023/06/23 17:31:47;;;;;;;0.70;0.45;;;;;;;;;;20832002;28;20267;-67
2023/06/23 17:41:49;;;;;;;3.13;0.50;;;;;;;;;;20843270;28;20276;-67
2023/06/23 17:51:51;;;;;;;2.05;0.55;;;;;;;;;;20835597;28;20218;-68
2023/06/23 18:01:53;;;;;;;0.80;0.47;;;;;;;;;;20855838;23;20713;-78
2023/06/23 18:11:56;;;;;;;1.33;0.50;;;;;;;;;;20884688;28;20293;-78
2023/06/23 18:21:58;;;;;;;0.77;0.50;;;;;;;;;;20951749;28;20274;-77
2023/06/23 18:32:12;;;;;;;1.05;0.70;;;;;;;;;;20912063;28;20224;-78
2023/06/23 18:42:14;;;;;;;0.57;0.40;;;;;;;;;;20901287;28;20331;-78
2023/06/23 18:52:16;;;;;;;0.52;0.40;;;;;;;;;;20876767;28;20275;-78
2023/06/23 19:02:18;;;;;;;0.65;0.50;;;;;;;;;;20893257;28;20528;-77
2023/06/23 19:12:20;;;;;;;0.68;0.40;;;;;;;;;;20967864;28;20299;-77
2023/06/23 19:22:22;;;;;;;0.70;0.50;;;;;;;;;;20943501;28;20269;-77
2023/06/23 19:32:24;;;;;;;2.65;0.50;;;;;;;;;;20965717;28;20654;-78
2023/06/23 19:42:26;;;;;;;0.77;0.50;;;;;;;;;;20947168;28;20251;-79
2023/06/23 19:52:28;;;;;;;0.90;0.45;;;;;;;;;;20925064;28;20653;-79
2023/06/23 20:02:30;;;;;;;2.25;0.60;;;;;;;;;;20927466;28;20228;-79
2023/06/23 20:12:31;;;;;;;1.45;0.60;;;;;;;;;;20954419;28;20235;-78
2023/06/23 20:22:33;;;;;;;1.60;0.70;;;;;;;;;;20986484;28;20224;-79
2023/06/23 20:32:35;;;;;;;0.70;0.45;;;;;;;;;;20951596;28;20246;-78
2023/06/23 20:42:36;;;;;;;1.38;0.80;;;;;;;;;;20947419;28;20233;-79
2023/06/23 20:52:38;;;;;;;1.23;0.70;;;;;;;;;;20935476;28;20277;-79
2023/06/23 21:02:40;;;;;;;2.80;0.70;;;;;;;;;;20982011;28;20253;-80
2023/06/23 21:12:42;;;;;;;2.30;0.50;;;;;;;;;;20990848;28;20219;-79
2023/06/23 21:22:43;;;;;;;2.42;0.60;;;;;;;;;;20960478;28;20597;-79
2023/06/23 21:32:45;;;;;;;6.05;1.10;;;;;;;;;;20943481;28;20290;-79
2023/06/23 21:42:47;;;;;;;3.88;0.80;;;;;;;;;;20905687;28;20285;-78
2023/06/23 21:52:49;;;;;;;3.92;1.00;;;;;;;;;;20906112;28;20273;-79
2023/06/23 22:02:51;;;;;;;0.77;0.60;;;;;;;;;;20905095;28;20219;-79
2023/06/23 22:12:52;;;;;;;1.73;0.88;;;;;;;;;;20950557;28;20288;-80
2023/06/23 22:22:54;;;;;;;1.27;0.80;;;;;;;;;;20956868;28;20236;-79
2023/06/23 22:32:56;;;;;;;1.17;0.77;;;;;;;;;;20966336;28;20212;-79
2023/06/23 22:42:57;;;;;;;1.77;1.13;;;;;;;;;;20973723;28;20563;-79
2023/06/23 22:53:00;;;;;;;1.52;1.00;;;;;;;;;;20950360;28;20215;-79
2023/06/23 23:03:02;;;;;;;1.40;0.95;;;;;;;;;;20962315;28;20231;-81
2023/06/23 23:13:04;;;;;;;1.38;0.90;;;;;;;;;;20972550;28;20269;-81
2023/06/23 23:23:06;;;;;;;2.80;1.17;;;;;;;;;;20984313;28;20643;-81
2023/06/23 23:33:07;;;;;;;5.13;1.05;;;;;;;;;;20934724;28;20235;-81
2023/06/23 23:43:09;;;;;;;2.10;1.23;;;;;;;;;;20931986;28;20317;-81
2023/06/23 23:53:11;;;;;;;1.55;0.98;;;;;;;;;;20992718;28;20215;-81
